sensor_id;sensor_type;location;lat;lon;timestamp;P1;P4;P2;P0;N10;N4;N25;N1;N05;TS
43196;SPS30;28816;49.852;18.282;2022-08-25T00:04:29;13.120000;;13.110000;12.440000;;;;;;
43196;SPS30;28816;49.852;18.282;2022-08-25T00:09:31;12.760000;;12.580000;11.820000;;;;;;
43196;SPS30;28816;49.852;18.282;2022-08-25T00:14:33;13.170000;;13.080000;12.530000;;;;;;
43196;SPS30;28816;49.852;18.282;2022-08-25T00:19:36;13.370000;;13.430000;12.600000;;;;;;
43196;SPS30;28816;49.852;18.282;2022-08-25T00:24:38;14.180000;;14.200000;13.320000;;;;;;
43196;SPS30;28816;49.852;18.282;2022-08-25T00:29:40;14.880000;;14.820000;13.910000;;;;;;
43196;SPS30;28816;49.852;18.282;2022-08-25T00:34:42;14.450000;;14.520000;13.610000;;;;;;
43196;SPS30;28816;49.852;18.282;2022-08-25T00:39:45;13.300000;;13.300000;12.550000;;;;;;
43196;SPS30;28816;49.852;18.282;2022-08-25T00:44:46;13.080000;;13.070000;12.360000;;;;;;
43196;SPS30;28816;49.852;18.282;2022-08-25T00:49:48;13.930000;;13.960000;12.950000;;;;;;
43196;SPS30;28816;49.852;18.282;2022-08-25T00:54:53;14.340000;;14.370000;13.510000;;;;;;
43196;SPS30;28816;49.852;18.282;2022-08-25T00:59:57;15.300000;;15.270000;14.450000;;;;;;
43196;SPS30;28816;49.852;18.282;2022-08-25T01:05:00;13.570000;;13.680000;12.820000;;;;;;
43196;SPS30;28816;49.852;18.282;2022-08-25T01:10:03;13.930000;;13.700000;13.080000;;;;;;
43196;SPS30;28816;49.852;18.282;2022-08-25T01:15:06;14.640000;;14.520000;13.940000;;;;;;
43196;SPS30;28816;49.852;18.282;2022-08-25T01:20:10;14.050000;;14.090000;13.230000;;;;;;
43196;SPS30;28816;49.852;18.282;2022-08-25T01:25:12;14.180000;;14.050000;13.350000;;;;;;
43196;SPS30;28816;49.852;18.282;2022-08-25T01:30:20;14.670000;;14.670000;13.850000;;;;;;
43196;SPS30;28816;49.852;18.282;2022-08-25T01:35:24;14.390000;;14.330000;13.690000;;;;;;
43196;SPS30;28816;49.852;18.282;2022-08-25T01:40:26;14.440000;;14.340000;13.590000;;;;;;
43196;SPS30;28816;49.852;18.282;2022-08-25T01:45:28;14.640000;;14.740000;13.700000;;;;;;
43196;SPS30;28816;49.852;18.282;2022-08-25T01:50:31;13.640000;;13.570000;12.820000;;;;;;
43196;SPS30;28816;49.852;18.282;2022-08-25T01:55:34;13.880000;;13.680000;12.900000;;;;;;
43196;SPS30;28816;49.852;18.282;2022-08-25T02:00:36;13.630000;;13.700000;12.880000;;;;;;
43196;SPS30;28816;49.852;18.282;2022-08-25T02:05:43;13.380000;;13.390000;12.660000;;;;;;
43196;SPS30;28816;49.852;18.282;2022-08-25T02:10:44;12.650000;;12.670000;11.960000;;;;;;
43196;SPS30;28816;49.852;18.282;2022-08-25T02:15:46;13.330000;;13.160000;12.480000;;;;;;
43196;SPS30;28816;49.852;18.282;2022-08-25T02:20:50;14.470000;;14.400000;13.730000;;;;;;
43196;SPS30;28816;49.852;18.282;2022-08-25T02:25:52;13.260000;;13.250000;12.570000;;;;;;
43196;SPS30;28816;49.852;18.282;2022-08-25T02:30:54;15.020000;;14.880000;14.080000;;;;;;
43196;SPS30;28816;49.852;18.282;2022-08-25T02:35:56;12.490000;;12.450000;11.890000;;;;;;
43196;SPS30;28816;49.852;18.282;2022-08-25T02:40:59;13.140000;;13.020000;12.330000;;;;;;
43196;SPS30;28816;49.852;18.282;2022-08-25T02:46:07;13.310000;;13.400000;12.530000;;;;;;
43196;SPS30;28816;49.852;18.282;2022-08-25T02:51:10;15.150000;;15.100000;14.360000;;;;;;
43196;SPS30;28816;49.852;18.282;2022-08-25T02:56:13;14.990000;;15.000000;14.140000;;;;;;
43196;SPS30;28816;49.852;18.282;2022-08-25T03:01:16;15.210000;;15.230000;14.330000;;;;;;
43196;SPS30;28816;49.852;18.282;2022-08-25T03:06:18;15.320000;;15.400000;14.460000;;;;;;
43196;SPS30;28816;49.852;18.282;2022-08-25T03:11:21;14.410000;;14.430000;13.590000;;;;;;
43196;SPS30;28816;49.852;18.282;2022-08-25T03:16:23;13.720000;;13.640000;12.990000;;;;;;
43196;SPS30;28816;49.852;18.282;2022-08-25T03:21:25;12.240000;;12.190000;11.590000;;;;;;
43196;SPS30;28816;49.852;18.282;2022-08-25T03:26:28;14.700000;;14.750000;13.770000;;;;;;
43196;SPS30;28816;49.852;18.282;2022-08-25T03:31:29;13.720000;;13.650000;12.940000;;;;;;
43196;SPS30;28816;49.852;18.282;2022-08-25T03:36:32;13.470000;;13.430000;12.680000;;;;;;
43196;SPS30;28816;49.852;18.282;2022-08-25T03:41:34;12.760000;;12.690000;12.160000;;;;;;
43196;SPS30;28816;49.852;18.282;2022-08-25T03:46:36;13.990000;;14.050000;13.160000;;;;;;
43196;SPS30;28816;49.852;18.282;2022-08-25T03:51:40;13.650000;;13.610000;12.910000;;;;;;
43196;SPS30;28816;49.852;18.282;2022-08-25T03:56:43;13.930000;;13.890000;13.090000;;;;;;
43196;SPS30;28816;49.852;18.282;2022-08-25T04:01:45;14.020000;;14.140000;13.190000;;;;;;
43196;SPS30;28816;49.852;18.282;2022-08-25T04:06:47;14.410000;;14.410000;13.570000;;;;;;
43196;SPS30;28816;49.852;18.282;2022-08-25T04:11:49;14.530000;;14.420000;13.600000;;;;;;
43196;SPS30;28816;49.852;18.282;2022-08-25T04:16:51;15.310000;;15.100000;14.400000;;;;;;
43196;SPS30;28816;49.852;18.282;2022-08-25T04:21:54;13.940000;;13.950000;13.240000;;;;;;
43196;SPS30;28816;49.852;18.282;2022-08-25T04:26:56;14.490000;;14.350000;13.540000;;;;;;
43196;SPS30;28816;49.852;18.282;2022-08-25T04:31:57;13.970000;;13.850000;12.980000;;;;;;
43196;SPS30;28816;49.852;18.282;2022-08-25T04:37:00;13.860000;;13.880000;13.040000;;;;;;
43196;SPS30;28816;49.852;18.282;2022-08-25T04:42:02;14.370000;;14.210000;13.320000;;;;;;
43196;SPS30;28816;49.852;18.282;2022-08-25T04:47:04;14.270000;;14.160000;13.360000;;;;;;
43196;SPS30;28816;49.852;18.282;2022-08-25T04:52:06;14.930000;;14.920000;14.020000;;;;;;
43196;SPS30;28816;49.852;18.282;2022-08-25T04:57:08;15.190000;;15.090000;14.370000;;;;;;
43196;SPS30;28816;49.852;18.282;2022-08-25T05:02:10;13.370000;;13.230000;12.510000;;;;;;
43196;SPS30;28816;49.852;18.282;2022-08-25T05:07:12;14.190000;;13.980000;12.970000;;;;;;
43196;SPS30;28816;49.852;18.282;2022-08-25T05:12:14;13.120000;;13.050000;12.300000;;;;;;
43196;SPS30;28816;49.852;18.282;2022-08-25T05:17:16;14.210000;;14.070000;13.390000;;;;;;
43196;SPS30;28816;49.852;18.282;2022-08-25T05:22:18;13.580000;;13.500000;12.880000;;;;;;
43196;SPS30;28816;49.852;18.282;2022-08-25T05:27:20;14.720000;;14.660000;13.980000;;;;;;
43196;SPS30;28816;49.852;18.282;2022-08-25T05:32:22;16.830000;;16.850000;15.790000;;;;;;
43196;SPS30;28816;49.852;18.282;2022-08-25T05:37:24;17.410000;;17.380000;16.150000;;;;;;
43196;SPS30;28816;49.852;18.282;2022-08-25T05:42:26;14.720000;;14.680000;13.620000;;;;;;
43196;SPS30;28816;49.852;18.282;2022-08-25T05:47:28;14.200000;;13.910000;13.020000;;;;;;
43196;SPS30;28816;49.852;18.282;2022-08-25T05:52:30;13.910000;;13.820000;12.860000;;;;;;
43196;SPS30;28816;49.852;18.282;2022-08-25T05:57:32;13.250000;;13.110000;12.320000;;;;;;
43196;SPS30;28816;49.852;18.282;2022-08-25T06:02:34;12.420000;;12.420000;11.710000;;;;;;
43196;SPS30;28816;49.852;18.282;2022-08-25T06:07:36;12.030000;;11.890000;11.300000;;;;;;
43196;SPS30;28816;49.852;18.282;2022-08-25T06:12:38;11.040000;;11.020000;10.240000;;;;;;
43196;SPS30;28816;49.852;18.282;2022-08-25T06:17:42;11.140000;;11.080000;10.480000;;;;;;
43196;SPS30;28816;49.852;18.282;2022-08-25T06:22:45;10.750000;;10.670000;9.910000;;;;;;
43196;SPS30;28816;49.852;18.282;2022-08-25T06:27:47;10.240000;;10.130000;9.700000;;;;;;
43196;SPS30;28816;49.852;18.282;2022-08-25T06:32:49;11.220000;;11.170000;10.450000;;;;;;
43196;SPS30;28816;49.852;18.282;2022-08-25T06:37:51;9.890000;;9.710000;9.180000;;;;;;
43196;SPS30;28816;49.852;18.282;2022-08-25T06:42:53;10.410000;;10.260000;9.410000;;;;;;
43196;SPS30;28816;49.852;18.282;2022-08-25T06:47:55;9.670000;;9.640000;9.130000;;;;;;
43196;SPS30;28816;49.852;18.282;2022-08-25T06:52:57;10.020000;;9.870000;9.220000;;;;;;
43196;SPS30;28816;49.852;18.282;2022-08-25T06:57:59;12.890000;;12.830000;12.170000;;;;;;
43196;SPS30;28816;49.852;18.282;2022-08-25T07:03:01;11.780000;;11.810000;11.090000;;;;;;
43196;SPS30;28816;49.852;18.282;2022-08-25T07:08:03;10.910000;;10.810000;10.190000;;;;;;
43196;SPS30;28816;49.852;18.282;2022-08-25T07:13:04;14.240000;;14.250000;13.340000;;;;;;
43196;SPS30;28816;49.852;18.282;2022-08-25T07:18:06;11.010000;;11.010000;10.290000;;;;;;
43196;SPS30;28816;49.852;18.282;2022-08-25T07:23:09;10.470000;;10.470000;9.890000;;;;;;
43196;SPS30;28816;49.852;18.282;2022-08-25T07:28:11;9.530000;;9.460000;8.920000;;;;;;
43196;SPS30;28816;49.852;18.282;2022-08-25T07:33:14;11.430000;;11.330000;10.640000;;;;;;
43196;SPS30;28816;49.852;18.282;2022-08-25T07:38:16;10.170000;;10.060000;9.430000;;;;;;
43196;SPS30;28816;49.852;18.282;2022-08-25T07:43:18;14.010000;;14.030000;13.070000;;;;;;
43196;SPS30;28816;49.852;18.282;2022-08-25T07:48:21;12.620000;;12.440000;11.990000;;;;;;
43196;SPS30;28816;49.852;18.282;2022-08-25T07:53:23;12.250000;;12.230000;11.580000;;;;;;
43196;SPS30;28816;49.852;18.282;2022-08-25T07:58:25;14.490000;;14.340000;13.620000;;;;;;
43196;SPS30;28816;49.852;18.282;2022-08-25T08:03:27;14.150000;;14.150000;13.320000;;;;;;
43196;SPS30;28816;49.852;18.282;2022-08-25T08:08:30;17.110000;;16.920000;16.100000;;;;;;
43196;SPS30;28816;49.852;18.282;2022-08-25T08:13:32;15.620000;;15.550000;14.600000;;;;;;
43196;SPS30;28816;49.852;18.282;2022-08-25T08:18:34;16.990000;;17.060000;15.980000;;;;;;
43196;SPS30;28816;49.852;18.282;2022-08-25T08:23:36;15.450000;;15.250000;14.440000;;;;;;
43196;SPS30;28816;49.852;18.282;2022-08-25T08:28:38;14.880000;;14.850000;14.040000;;;;;;
43196;SPS30;28816;49.852;18.282;2022-08-25T08:33:40;18.400000;;18.080000;17.210000;;;;;;
43196;SPS30;28816;49.852;18.282;2022-08-25T08:38:42;14.900000;;14.910000;14.080000;;;;;;
43196;SPS30;28816;49.852;18.282;2022-08-25T08:43:45;18.040000;;17.960000;16.900000;;;;;;
43196;SPS30;28816;49.852;18.282;2022-08-25T08:48:50;20.500000;;20.500000;19.380000;;;;;;
43196;SPS30;28816;49.852;18.282;2022-08-25T08:53:59;19.670000;;19.590000;18.570000;;;;;;
43196;SPS30;28816;49.852;18.282;2022-08-25T08:59:06;17.430000;;17.420000;16.510000;;;;;;
43196;SPS30;28816;49.852;18.282;2022-08-25T09:04:10;22.150000;;22.160000;20.960000;;;;;;
43196;SPS30;28816;49.852;18.282;2022-08-25T09:09:17;20.110000;;20.010000;19.110000;;;;;;
43196;SPS30;28816;49.852;18.282;2022-08-25T09:14:23;17.480000;;17.400000;16.610000;;;;;;
43196;SPS30;28816;49.852;18.282;2022-08-25T09:19:34;17.030000;;17.070000;16.020000;;;;;;
43196;SPS30;28816;49.852;18.282;2022-08-25T09:24:49;18.830000;;18.750000;17.810000;;;;;;
43196;SPS30;28816;49.852;18.282;2022-08-25T09:29:55;16.890000;;16.830000;16.010000;;;;;;
43196;SPS30;28816;49.852;18.282;2022-08-25T09:35:00;14.890000;;14.970000;13.970000;;;;;;
43196;SPS30;28816;49.852;18.282;2022-08-25T09:40:03;14.270000;;14.240000;13.540000;;;;;;
43196;SPS30;28816;49.852;18.282;2022-08-25T09:45:06;14.760000;;14.690000;13.990000;;;;;;
43196;SPS30;28816;49.852;18.282;2022-08-25T09:50:10;14.170000;;14.170000;13.430000;;;;;;
43196;SPS30;28816;49.852;18.282;2022-08-25T09:55:14;15.100000;;14.990000;14.300000;;;;;;
43196;SPS30;28816;49.852;18.282;2022-08-25T10:00:22;15.920000;;15.980000;15.040000;;;;;;
43196;SPS30;28816;49.852;18.282;2022-08-25T10:05:25;14.220000;;14.320000;13.410000;;;;;;
43196;SPS30;28816;49.852;18.282;2022-08-25T10:10:28;13.080000;;13.000000;12.480000;;;;;;
43196;SPS30;28816;49.852;18.282;2022-08-25T10:15:32;10.650000;;10.490000;9.550000;;;;;;
43196;SPS30;28816;49.852;18.282;2022-08-25T10:20:36;11.910000;;11.870000;11.260000;;;;;;
43196;SPS30;28816;49.852;18.282;2022-08-25T10:25:38;11.580000;;11.570000;10.940000;;;;;;
43196;SPS30;28816;49.852;18.282;2022-08-25T10:30:44;11.100000;;10.770000;9.990000;;;;;;
43196;SPS30;28816;49.852;18.282;2022-08-25T10:35:52;10.170000;;10.040000;9.340000;;;;;;
43196;SPS30;28816;49.852;18.282;2022-08-25T10:40:57;12.140000;;12.220000;11.340000;;;;;;
43196;SPS30;28816;49.852;18.282;2022-08-25T10:46:04;12.090000;;12.070000;11.460000;;;;;;
43196;SPS30;28816;49.852;18.282;2022-08-25T10:51:12;12.190000;;12.100000;11.560000;;;;;;
43196;SPS30;28816;49.852;18.282;2022-08-25T10:56:28;10.520000;;10.540000;9.950000;;;;;;
43196;SPS30;28816;49.852;18.282;2022-08-25T11:01:32;12.080000;;12.060000;11.430000;;;;;;
43196;SPS30;28816;49.852;18.282;2022-08-25T11:06:42;12.270000;;12.220000;11.410000;;;;;;
43196;SPS30;28816;49.852;18.282;2022-08-25T11:11:47;10.930000;;10.880000;10.010000;;;;;;
43196;SPS30;28816;49.852;18.282;2022-08-25T11:16:54;12.430000;;12.390000;11.670000;;;;;;
43196;SPS30;28816;49.852;18.282;2022-08-25T11:21:57;11.440000;;11.360000;10.580000;;;;;;
43196;SPS30;28816;49.852;18.282;2022-08-25T11:27:03;10.830000;;10.860000;10.150000;;;;;;
43196;SPS30;28816;49.852;18.282;2022-08-25T11:32:08;10.500000;;10.150000;9.270000;;;;;;
43196;SPS30;28816;49.852;18.282;2022-08-25T11:37:10;11.340000;;10.840000;9.950000;;;;;;
43196;SPS30;28816;49.852;18.282;2022-08-25T11:42:18;9.540000;;9.490000;8.760000;;;;;;
43196;SPS30;28816;49.852;18.282;2022-08-25T11:47:28;10.660000;;10.590000;9.780000;;;;;;
43196;SPS30;28816;49.852;18.282;2022-08-25T11:52:39;10.390000;;9.860000;8.930000;;;;;;
43196;SPS30;28816;49.852;18.282;2022-08-25T11:57:43;9.360000;;9.280000;8.520000;;;;;;
43196;SPS30;28816;49.852;18.282;2022-08-25T12:02:47;9.040000;;8.720000;7.950000;;;;;;
43196;SPS30;28816;49.852;18.282;2022-08-25T12:07:49;9.730000;;9.370000;8.430000;;;;;;
43196;SPS30;28816;49.852;18.282;2022-08-25T12:13:00;8.720000;;8.760000;8.160000;;;;;;
43196;SPS30;28816;49.852;18.282;2022-08-25T12:18:22;8.640000;;8.370000;7.650000;;;;;;
43196;SPS30;28816;49.852;18.282;2022-08-25T12:23:41;10.130000;;9.780000;8.870000;;;;;;
43196;SPS30;28816;49.852;18.282;2022-08-25T12:29:02;9.800000;;9.420000;8.760000;;;;;;
43196;SPS30;28816;49.852;18.282;2022-08-25T12:34:08;10.060000;;9.700000;8.750000;;;;;;
43196;SPS30;28816;49.852;18.282;2022-08-25T12:39:20;9.060000;;9.060000;8.530000;;;;;;
43196;SPS30;28816;49.852;18.282;2022-08-25T12:44:27;10.230000;;9.960000;9.030000;;;;;;
43196;SPS30;28816;49.852;18.282;2022-08-25T12:49:46;10.270000;;9.680000;8.690000;;;;;;
43196;SPS30;28816;49.852;18.282;2022-08-25T12:54:47;10.330000;;10.240000;9.710000;;;;;;
43196;SPS30;28816;49.852;18.282;2022-08-25T12:59:52;10.800000;;10.440000;9.540000;;;;;;
43196;SPS30;28816;49.852;18.282;2022-08-25T13:04:56;11.640000;;11.380000;10.270000;;;;;;
43196;SPS30;28816;49.852;18.282;2022-08-25T13:10:03;9.630000;;9.490000;8.530000;;;;;;
43196;SPS30;28816;49.852;18.282;2022-08-25T13:15:42;8.460000;;8.310000;7.730000;;;;;;
43196;SPS30;28816;49.852;18.282;2022-08-25T13:20:46;10.790000;;10.360000;9.340000;;;;;;
43196;SPS30;28816;49.852;18.282;2022-08-25T13:25:49;11.340000;;10.870000;9.820000;;;;;;
43196;SPS30;28816;49.852;18.282;2022-08-25T13:30:52;11.520000;;11.230000;10.470000;;;;;;
43196;SPS30;28816;49.852;18.282;2022-08-25T13:35:55;9.110000;;9.140000;8.520000;;;;;;
43196;SPS30;28816;49.852;18.282;2022-08-25T13:40:58;9.730000;;9.300000;8.470000;;;;;;
43196;SPS30;28816;49.852;18.282;2022-08-25T13:46:01;8.240000;;8.030000;7.220000;;;;;;
43196;SPS30;28816;49.852;18.282;2022-08-25T13:51:04;9.330000;;8.960000;8.090000;;;;;;
43196;SPS30;28816;49.852;18.282;2022-08-25T13:56:09;8.380000;;8.170000;7.390000;;;;;;
43196;SPS30;28816;49.852;18.282;2022-08-25T14:01:22;9.470000;;9.000000;7.920000;;;;;;
43196;SPS30;28816;49.852;18.282;2022-08-25T14:06:25;9.510000;;9.290000;8.540000;;;;;;
43196;SPS30;28816;49.852;18.282;2022-08-25T14:11:28;9.750000;;9.160000;8.060000;;;;;;
43196;SPS30;28816;49.852;18.282;2022-08-25T14:16:30;9.870000;;9.360000;8.530000;;;;;;
43196;SPS30;28816;49.852;18.282;2022-08-25T14:21:36;9.560000;;9.180000;8.420000;;;;;;
43196;SPS30;28816;49.852;18.282;2022-08-25T14:26:38;8.750000;;8.560000;7.860000;;;;;;
43196;SPS30;28816;49.852;18.282;2022-08-25T14:31:41;9.780000;;9.300000;8.400000;;;;;;
43196;SPS30;28816;49.852;18.282;2022-08-25T14:36:44;9.270000;;8.750000;7.850000;;;;;;
43196;SPS30;28816;49.852;18.282;2022-08-25T14:41:47;9.290000;;9.210000;8.840000;;;;;;
43196;SPS30;28816;49.852;18.282;2022-08-25T14:46:50;9.970000;;9.640000;8.920000;;;;;;
43196;SPS30;28816;49.852;18.282;2022-08-25T14:51:53;10.660000;;10.220000;9.300000;;;;;;
43196;SPS30;28816;49.852;18.282;2022-08-25T14:56:56;13.270000;;12.990000;11.900000;;;;;;
43196;SPS30;28816;49.852;18.282;2022-08-25T15:01:58;12.300000;;12.060000;11.000000;;;;;;
43196;SPS30;28816;49.852;18.282;2022-08-25T15:07:00;12.030000;;11.610000;10.460000;;;;;;
43196;SPS30;28816;49.852;18.282;2022-08-25T15:12:01;10.310000;;10.180000;9.280000;;;;;;
43196;SPS30;28816;49.852;18.282;2022-08-25T15:17:04;11.030000;;10.860000;10.140000;;;;;;
43196;SPS30;28816;49.852;18.282;2022-08-25T15:22:06;10.900000;;10.740000;9.950000;;;;;;
43196;SPS30;28816;49.852;18.282;2022-08-25T15:27:09;10.870000;;10.600000;9.590000;;;;;;
43196;SPS30;28816;49.852;18.282;2022-08-25T15:32:11;10.800000;;10.640000;9.770000;;;;;;
43196;SPS30;28816;49.852;18.282;2022-08-25T15:37:14;10.680000;;10.410000;9.740000;;;;;;
43196;SPS30;28816;49.852;18.282;2022-08-25T15:42:16;13.460000;;13.280000;12.450000;;;;;;
43196;SPS30;28816;49.852;18.282;2022-08-25T15:47:19;12.400000;;12.120000;11.410000;;;;;;
43196;SPS30;28816;49.852;18.282;2022-08-25T15:52:22;11.710000;;11.630000;10.970000;;;;;;
43196;SPS30;28816;49.852;18.282;2022-08-25T15:57:26;11.200000;;11.140000;10.560000;;;;;;
43196;SPS30;28816;49.852;18.282;2022-08-25T16:02:28;11.130000;;11.200000;10.500000;;;;;;
43196;SPS30;28816;49.852;18.282;2022-08-25T16:07:30;9.880000;;9.810000;8.890000;;;;;;
43196;SPS30;28816;49.852;18.282;2022-08-25T16:12:32;10.340000;;10.280000;9.790000;;;;;;
43196;SPS30;28816;49.852;18.282;2022-08-25T16:17:35;10.660000;;10.470000;9.980000;;;;;;
43196;SPS30;28816;49.852;18.282;2022-08-25T16:22:36;10.030000;;9.760000;8.930000;;;;;;
43196;SPS30;28816;49.852;18.282;2022-08-25T16:27:39;9.800000;;9.780000;9.250000;;;;;;
43196;SPS30;28816;49.852;18.282;2022-08-25T16:32:40;11.080000;;10.810000;10.110000;;;;;;
43196;SPS30;28816;49.852;18.282;2022-08-25T16:37:42;11.500000;;10.920000;9.860000;;;;;;
43196;SPS30;28816;49.852;18.282;2022-08-25T16:42:44;10.750000;;10.190000;9.040000;;;;;;
43196;SPS30;28816;49.852;18.282;2022-08-25T16:47:46;9.560000;;9.200000;8.500000;;;;;;
43196;SPS30;28816;49.852;18.282;2022-08-25T16:52:48;9.140000;;8.750000;7.660000;;;;;;
43196;SPS30;28816;49.852;18.282;2022-08-25T16:57:50;9.030000;;8.730000;7.700000;;;;;;
43196;SPS30;28816;49.852;18.282;2022-08-25T17:02:52;10.050000;;9.540000;8.590000;;;;;;
43196;SPS30;28816;49.852;18.282;2022-08-25T17:07:55;8.480000;;8.460000;7.880000;;;;;;
43196;SPS30;28816;49.852;18.282;2022-08-25T17:12:58;10.810000;;10.270000;9.220000;;;;;;
43196;SPS30;28816;49.852;18.282;2022-08-25T17:18:00;9.900000;;9.890000;9.380000;;;;;;
43196;SPS30;28816;49.852;18.282;2022-08-25T17:23:02;11.020000;;11.020000;10.360000;;;;;;
43196;SPS30;28816;49.852;18.282;2022-08-25T17:28:04;9.870000;;9.480000;8.460000;;;;;;
43196;SPS30;28816;49.852;18.282;2022-08-25T17:33:06;10.830000;;10.180000;9.130000;;;;;;
43196;SPS30;28816;49.852;18.282;2022-08-25T17:38:08;10.370000;;10.000000;8.970000;;;;;;
43196;SPS30;28816;49.852;18.282;2022-08-25T17:43:11;11.270000;;11.050000;10.210000;;;;;;
43196;SPS30;28816;49.852;18.282;2022-08-25T17:48:13;9.650000;;9.380000;8.530000;;;;;;
43196;SPS30;28816;49.852;18.282;2022-08-25T17:53:14;10.920000;;10.600000;9.310000;;;;;;
43196;SPS30;28816;49.852;18.282;2022-08-25T17:58:17;10.280000;;10.050000;9.320000;;;;;;
43196;SPS30;28816;49.852;18.282;2022-08-25T18:03:19;9.990000;;9.650000;8.940000;;;;;;
43196;SPS30;28816;49.852;18.282;2022-08-25T18:08:20;11.620000;;11.450000;10.610000;;;;;;
43196;SPS30;28816;49.852;18.282;2022-08-25T18:13:22;12.180000;;11.950000;11.160000;;;;;;
43196;SPS30;28816;49.852;18.282;2022-08-25T18:18:25;11.030000;;10.810000;9.770000;;;;;;
43196;SPS30;28816;49.852;18.282;2022-08-25T18:23:28;11.060000;;10.680000;9.720000;;;;;;
43196;SPS30;28816;49.852;18.282;2022-08-25T18:28:30;10.540000;;10.270000;9.480000;;;;;;
43196;SPS30;28816;49.852;18.282;2022-08-25T18:33:32;10.500000;;10.240000;9.400000;;;;;;
43196;SPS30;28816;49.852;18.282;2022-08-25T18:38:34;10.850000;;10.630000;10.110000;;;;;;
43196;SPS30;28816;49.852;18.282;2022-08-25T18:43:36;10.090000;;10.020000;9.300000;;;;;;
43196;SPS30;28816;49.852;18.282;2022-08-25T18:48:38;10.740000;;10.470000;9.630000;;;;;;
43196;SPS30;28816;49.852;18.282;2022-08-25T18:53:40;11.370000;;11.170000;10.440000;;;;;;
43196;SPS30;28816;49.852;18.282;2022-08-25T18:58:41;11.650000;;11.260000;10.360000;;;;;;
43196;SPS30;28816;49.852;18.282;2022-08-25T19:03:44;11.630000;;11.700000;10.840000;;;;;;
43196;SPS30;28816;49.852;18.282;2022-08-25T19:08:46;11.920000;;11.850000;11.200000;;;;;;
43196;SPS30;28816;49.852;18.282;2022-08-25T19:13:48;11.510000;;11.390000;10.950000;;;;;;
43196;SPS30;28816;49.852;18.282;2022-08-25T19:18:50;11.530000;;11.440000;10.810000;;;;;;
43196;SPS30;28816;49.852;18.282;2022-08-25T19:23:52;11.840000;;11.820000;10.920000;;;;;;
43196;SPS30;28816;49.852;18.282;2022-08-25T19:28:54;11.790000;;11.720000;11.200000;;;;;;
43196;SPS30;28816;49.852;18.282;2022-08-25T19:33:56;11.580000;;11.520000;11.000000;;;;;;
43196;SPS30;28816;49.852;18.282;2022-08-25T19:38:59;11.270000;;11.280000;10.630000;;;;;;
43196;SPS30;28816;49.852;18.282;2022-08-25T19:44:01;11.190000;;11.080000;10.640000;;;;;;
43196;SPS30;28816;49.852;18.282;2022-08-25T19:49:03;12.490000;;12.550000;11.760000;;;;;;
43196;SPS30;28816;49.852;18.282;2022-08-25T19:54:06;12.630000;;12.690000;11.900000;;;;;;
43196;SPS30;28816;49.852;18.282;2022-08-25T19:59:10;12.530000;;12.540000;11.630000;;;;;;
43196;SPS30;28816;49.852;18.282;2022-08-25T20:04:12;12.650000;;12.570000;11.880000;;;;;;
43196;SPS30;28816;49.852;18.282;2022-08-25T20:09:14;12.610000;;12.570000;11.880000;;;;;;
43196;SPS30;28816;49.852;18.282;2022-08-25T20:14:16;11.400000;;11.380000;10.610000;;;;;;
43196;SPS30;28816;49.852;18.282;2022-08-25T20:19:18;12.000000;;11.890000;11.310000;;;;;;
43196;SPS30;28816;49.852;18.282;2022-08-25T20:24:20;12.230000;;12.180000;11.350000;;;;;;
43196;SPS30;28816;49.852;18.282;2022-08-25T20:29:23;12.700000;;12.570000;12.050000;;;;;;
43196;SPS30;28816;49.852;18.282;2022-08-25T20:34:25;12.980000;;13.010000;12.190000;;;;;;
43196;SPS30;28816;49.852;18.282;2022-08-25T20:39:26;11.590000;;11.530000;10.650000;;;;;;
43196;SPS30;28816;49.852;18.282;2022-08-25T20:44:29;11.890000;;11.940000;11.160000;;;;;;
43196;SPS30;28816;49.852;18.282;2022-08-25T20:49:33;13.200000;;13.290000;12.410000;;;;;;
43196;SPS30;28816;49.852;18.282;2022-08-25T20:54:35;13.350000;;13.410000;12.540000;;;;;;
43196;SPS30;28816;49.852;18.282;2022-08-25T20:59:37;13.480000;;13.440000;12.780000;;;;;;
43196;SPS30;28816;49.852;18.282;2022-08-25T21:04:39;13.430000;;13.420000;12.690000;;;;;;
43196;SPS30;28816;49.852;18.282;2022-08-25T21:09:41;14.080000;;14.000000;13.340000;;;;;;
43196;SPS30;28816;49.852;18.282;2022-08-25T21:14:43;12.840000;;12.870000;12.010000;;;;;;
43196;SPS30;28816;49.852;18.282;2022-08-25T21:19:45;13.520000;;13.450000;12.780000;;;;;;
43196;SPS30;28816;49.852;18.282;2022-08-25T21:24:47;13.370000;;13.330000;12.660000;;;;;;
43196;SPS30;28816;49.852;18.282;2022-08-25T21:29:49;13.220000;;13.200000;12.440000;;;;;;
43196;SPS30;28816;49.852;18.282;2022-08-25T21:34:51;13.040000;;13.060000;12.320000;;;;;;
43196;SPS30;28816;49.852;18.282;2022-08-25T21:39:53;13.150000;;13.110000;12.470000;;;;;;
43196;SPS30;28816;49.852;18.282;2022-08-25T21:44:55;13.510000;;13.520000;12.760000;;;;;;
43196;SPS30;28816;49.852;18.282;2022-08-25T21:49:57;13.390000;;13.440000;12.650000;;;;;;
43196;SPS30;28816;49.852;18.282;2022-08-25T21:54:59;13.420000;;13.350000;12.740000;;;;;;
43196;SPS30;28816;49.852;18.282;2022-08-25T22:00:01;13.850000;;13.840000;13.070000;;;;;;
43196;SPS30;28816;49.852;18.282;2022-08-25T22:05:05;13.470000;;13.550000;12.700000;;;;;;
43196;SPS30;28816;49.852;18.282;2022-08-25T22:10:07;13.580000;;13.660000;12.780000;;;;;;
43196;SPS30;28816;49.852;18.282;2022-08-25T22:15:09;13.210000;;13.180000;12.380000;;;;;;
43196;SPS30;28816;49.852;18.282;2022-08-25T22:20:12;13.140000;;13.140000;12.450000;;;;;;
43196;SPS30;28816;49.852;18.282;2022-08-25T22:25:14;13.180000;;13.080000;12.600000;;;;;;
43196;SPS30;28816;49.852;18.282;2022-08-25T22:30:17;14.650000;;14.610000;13.720000;;;;;;
43196;SPS30;28816;49.852;18.282;2022-08-25T22:35:20;13.310000;;13.400000;12.540000;;;;;;
43196;SPS30;28816;49.852;18.282;2022-08-25T22:40:22;13.310000;;13.290000;12.620000;;;;;;
43196;SPS30;28816;49.852;18.282;2022-08-25T22:45:23;13.450000;;13.480000;12.710000;;;;;;